LGTSLGEL

Guest
Details From LGTS - Thessalonik Makedonia
To LGEL - ELEFSIS
Flight Number -
Tags generated
Created
Modified
Stats Distance 151 nm / 280 km
Max Altitude 17,900 ft / 5,456 m
Waypoints 5
Social Downloads 2
Likes 0
Share VATSIM

Download

Looking for another format? Having issues loading an existing format? Contact us
Advertisement - Login to hide

Notes

Basic altitude profile: - Ascent Rate: 2500ft/min - Ascent Speed: 250kts - Cruise Altitude: 35000ft - Cruise Speed: 420kts - Descent Rate: 1500ft/min - Descent Speed: 250kts Options: - Use NATs: yes - Use PACOTS: yes - Use low airways: yes - Use high airways: yes

Route

LGTS TSL B1 AGISA LGEL

ID Type Via Altitude Latitude Longitude Leg Dist Tot Dist Heading (true) Name
O LGTS APT - 0 ft / 0 m 40.51952˚ 22.97202˚ - 0 nm - Thessalonik Makedonia
TSL VOR - 1,300 ft / 396 m 40.45694˚ 22.99111˚ 3 nm 3 nm 167° / 167° THESSALONIKI VOR-DME
LEKPO FIX B1 (AWY-LO) 9,200 ft / 2,804 m 40.11278˚ 23.16194˚ 22 nm 25 nm 159° / 159° -
AGISA FIX B1 (AWY-LO) 17,900 ft / 5,456 m 39.73333˚ 23.35000˚ 24 nm 50 nm 159° / 159° -
O LGEL APT - 0 ft / 0 m 38.06392˚ 23.55604˚ 100 nm 151 nm 174° / 175° ELEFSIS

Altitude Profile

Advertisement - Login to hide

LGTS

Details ICAO LGTS (SKG)
Name Thessalonik Makedonia
Region Greece
Timezone Europe/Athens (UTC+2.0)
Stats Elevation 22 ft / 7 m (AMSL)
Location 40.519522° 22.972017°
Runways 2
Magnetic Variation 4.621° E

METAR

LGTS 110420Z 12003KT CAVOK M00/M03 Q1021 NOSIG

Decode

TAF

TAF AMD LGTS 110100Z 1101/1124 VRB03KT CAVOK PROB30 TEMPO 1104/1107 5000 BR SCT008

Decode

Departure Runways

ID Width Length Bearing (true) Bearing (mag) Surface Threshold Offset Overrun Length
10 164 ft / 50 m 7,990 ft / 2,435 m 103.95° 99.33° Asphalt 0 ft / 0 m 150 ft / 46 m
16 197 ft / 60 m 7,927 ft / 2,416 m 166.35° 161.73° Asphalt 0 ft / 0 m 200 ft / 61 m
28 164 ft / 50 m 7,990 ft / 2,435 m 283.97° 279.35° Asphalt 0 ft / 0 m 150 ft / 46 m
34 197 ft / 60 m 7,927 ft / 2,416 m 346.36° 341.74° Asphalt 0 ft / 0 m 200 ft / 61 m

LGEL

Details ICAO LGEL
Name ELEFSIS
Region Greece
Timezone Europe/Athens (UTC+2.0)
Stats Elevation 143 ft / 44 m (AMSL)
Location 38.063917° 23.556041°
Runways 1
Magnetic Variation 4.447° E

METAR

LGEL 110420Z 00000KT 9999 FEW025 04/02 Q1022

Decode

TAF

TAF LGEL 102300Z 1100/1124 VRB03KT 9999 FEW025

Decode

Destination Runways

ID Width Length Bearing (true) Bearing (mag) Surface Threshold Offset Overrun Length
18 131 ft / 40 m 8,940 ft / 2,725 m 179.85° 175.40° Asphalt 0 ft / 0 m 830 ft / 253 m
36 131 ft / 40 m 8,940 ft / 2,725 m 359.85° 355.40° Asphalt 198 ft / 60 m 150 ft / 46 m

Popular Alternatives